Islamabad International Airport


Codes: OPIS/ISB
Name: Islamabad International Airport
City: Islamabad
Country: Pakistan
Elevation: 1761 ft.

Photos at Islamabad International Airport


   Photos courtesy of SpottingLog. You can add your own sightings and photos by signing up for a free trial today.



No photos found.

Weather at Islamabad International Airport


Time (UTC)DescriptionTempratureWindCloud coverageVisibilityPressureHumidity
19-Apr-2024 03:00Light Rain16°C16 mph, N100%10000m1008hPa79%
19-Apr-2024 06:00Light Rain18°C20 mph, NW100%10000m1008hPa71%
19-Apr-2024 09:00Overcast Clouds20°C25 mph, NW100%10000m1005hPa66%
19-Apr-2024 12:00Moderate Rain19°C18 mph, NE99%3670m1006hPa77%
19-Apr-2024 15:00Moderate Rain17°C2 mph, NW100%10000m1006hPa78%
19-Apr-2024 18:00Light Rain16°C2 mph, N100%10000m1009hPa87%
19-Apr-2024 21:00Light Rain17°C7 mph, NW100%10000m1009hPa82%
20-Apr-2024 00:00Overcast Clouds15°C13 mph, NW100%10000m1008hPa92%
20-Apr-2024 03:00Overcast Clouds17°C20 mph, NW100%10000m1009hPa79%
20-Apr-2024 06:00Broken Clouds23°C18 mph, NW83%10000m1009hPa56%
20-Apr-2024 09:00Clear Sky25°C16 mph, NW0%10000m1007hPa50%
20-Apr-2024 12:00Clear Sky24°C18 mph, NW0%10000m1005hPa53%
20-Apr-2024 15:00Clear Sky20°C13 mph, NW3%10000m1006hPa60%
20-Apr-2024 18:00Scattered Clouds18°C11 mph, NW41%10000m1007hPa63%
20-Apr-2024 21:00Clear Sky17°C9 mph, NW0%10000m1006hPa71%
21-Apr-2024 00:00Clear Sky16°C7 mph, NW0%10000m1006hPa78%
21-Apr-2024 03:00Clear Sky20°C7 mph, NW0%10000m1007hPa64%
21-Apr-2024 06:00Clear Sky26°C7 mph, NW0%10000m1007hPa43%
21-Apr-2024 09:00Clear Sky29°C4 mph, SW0%10000m1005hPa35%
21-Apr-2024 12:00Clear Sky29°C4 mph, W0%10000m1004hPa33%
21-Apr-2024 15:00Clear Sky24°C7 mph, N1%10000m1006hPa52%
21-Apr-2024 18:00Clear Sky21°C2 mph, NE10%10000m1007hPa58%
21-Apr-2024 21:00Few Clouds20°C4 mph, N16%10000m1006hPa56%
22-Apr-2024 00:00Clear Sky18°C4 mph, NW10%10000m1006hPa55%
22-Apr-2024 03:00Clear Sky22°C4 mph, NW3%10000m1008hPa44%
22-Apr-2024 06:00Clear Sky28°C4 mph, NW2%10000m1008hPa33%
22-Apr-2024 09:00Clear Sky31°C4 mph, W1%10000m1006hPa26%
22-Apr-2024 12:00Clear Sky30°C9 mph, NW0%10000m1005hPa26%
22-Apr-2024 15:00Scattered Clouds23°C13 mph, NE25%10000m1008hPa48%
22-Apr-2024 18:00Scattered Clouds21°C2 mph, N48%10000m1008hPa53%
22-Apr-2024 21:00Light Rain19°C4 mph, N98%10000m1008hPa58%
23-Apr-2024 00:00Light Rain19°C4 mph, NW99%10000m1008hPa55%
23-Apr-2024 03:00Overcast Clouds22°C7 mph, NW97%10000m1008hPa47%
23-Apr-2024 06:00Broken Clouds27°C11 mph, NW79%10000m1008hPa34%
23-Apr-2024 09:00Broken Clouds30°C9 mph, NW64%10000m1006hPa27%
23-Apr-2024 12:00Broken Clouds30°C9 mph, NW53%10000m1004hPa28%
23-Apr-2024 15:00Scattered Clouds25°C2 mph, N44%10000m1006hPa41%
23-Apr-2024 18:00Broken Clouds24°C4 mph, NE56%10000m1006hPa43%
23-Apr-2024 21:00Broken Clouds22°C2 mph, N67%10000m1005hPa50%
24-Apr-2024 00:00Broken Clouds21°C4 mph, N65%10000m1006hPa49%